LAKE NATOMA (NIMBUS DAM) (NAT)

Elevation: 132' · AMERICAN R basin · Operator: US Bureau of Reclamation

Provisional data, subject to change.
Query executed Tuesday at 10:57:15   clock

Select a sensor type for a plot of data.
Note: Reservoir Flows are daily averages.

Earlier

Date RES ELE    STORAGE    RES CHG    OUTFLOW    INFLOW    SPILL    DIS PWR   
 FEET   AF   AF   CFS   CFS   CFS   CFS  
08/03/2015 123.92 8223 216 2431 2544 0 2361
08/04/2015 124.37 8446 223 2422 2537 0 2357
08/05/2015 124.45 8486 40 2413 2436 0 2363
08/06/2015 124.08 8301 -185 2412 2322 0 2362
08/07/2015 123.72 8129 -172 2412 2329 0 2362
08/08/2015 123.94 8233 104 2415 2470 0 2365
08/09/2015 124.25 8386 153 2418 2499 0 2358
08/10/2015 123.64 8092 -294 2420 2276 0 2360
08/11/2015 123.01 7796 -296 2422 2277 0 2362
08/12/2015 123.55 8050 254 2418 2549 0 2358
08/13/2015 122.66 7638 -- 2419 2215 0 2359
08/14/2015 122.53 7580 -58 2343 2318 0 2283
08/15/2015 123.04 7810 230 2243 2363 0 2183
08/16/2015 124.23 8376 566 2166 2456 0 2106
08/17/2015 124.55 8536 160 2073 2159 0 2013
08/18/2015 124.38 8451 -85 1963 1924 0 1903
08/19/2015 122.88 7737 -714 1971 1615 0 1911
08/20/2015 122.03 7355 -382 1974 1784 0 1907
08/21/2015 122.08 7377 22 1872 1886 0 1802
08/22/2015 122.57 7598 221 1777 1891 0 1707
08/23/2015 122.63 7625 27 1767 1784 0 1697
08/24/2015 122.52 7575 -50 1807 1786 0 1737
08/25/2015 123.17 7871 296 1827 1980 0 1757
08/26/2015 123.65 8097 226 1827 1945 0 1757
08/27/2015 123.75 8144 47 1825 1853 0 1755
08/28/2015 123.81 8172 28 1741 1760 0 1671
08/29/2015 123.94 8233 61 1640 1674 0 1570
08/30/2015 123.96 8242 9 1546 1554 0 1479
08/31/2015 123.50 8026 -216 1523 1417 0 1461
09/01/2015 -- -- -- -- -- -- --

Later | Latest

Warning! This data is preliminary and subject to revision.

Show NAT Map | Plot NAT Data | 1 Month NAT Data | Real-Time NAT Data | NAT Info